PST,Max TemperatureF,Mean TemperatureF,Min TemperatureF,Max Dew PointF,MeanDew PointF,Min DewpointF,Max Humidity, Mean Humidity, Min Humidity, Max Sea Level PressureIn, Mean Sea Level PressureIn, Min Sea Level PressureIn, Max VisibilityMiles, Mean VisibilityMiles, Min VisibilityMiles, Max Wind SpeedMPH, Mean Wind SpeedMPH, Max Gust SpeedMPH,PrecipitationIn, CloudCover, Events, WindDirDegrees
2012-12-1,66,63,59,59,57,54,97,82,67,30.19,30.14,30.09,10,8,5,6,1,,0.00,8,,280
2012-12-2,66,63,59,57,56,54,93,78,63,30.15,30.09,30.03,10,9,2,12,5,15,0.00,8,Rain,259
2012-12-3,68,63,58,58,57,55,100,84,68,30.19,30.14,30.08,10,8,2,8,2,12,0.09,7,Rain,290
2012-12-4,72,65,57,57,54,51,100,75,49,30.24,30.16,30.11,10,5,2,5,0,8,0.00,5,,265
2012-12-5,73,60,47,55,49,43,96,66,35,30.15,30.07,29.98,10,7,0,8,3,12,0.00,3,Fog,343
2012-12-6,65,59,53,55,53,50,100,82,63,30.04,29.95,29.85,6,3,0,5,1,,0.00,5,Fog,165
2012-12-7,79,62,45,52,48,42,93,61,29,29.96,29.91,29.87,10,6,1,13,3,23,0.00,0,,37
2012-12-8,70,57,44,52,44,36,77,56,35,29.96,29.92,29.87,10,8,3,9,4,10,0.00,0,,353
2012-12-9,71,57,43,49,46,42,100,68,35,30.10,30.01,29.95,9,4,0,9,1,12,0.00,1,Fog,340
2012-12-10,78,63,48,41,32,25,71,42,13,30.11,30.06,30.00,10,10,8,13,5,18,0.00,0,,104
2012-12-11,74,59,43,47,37,30,61,42,22,30.04,29.98,29.91,10,10,8,9,4,13,0.00,0,,359
2012-12-12,64,53,42,52,44,38,86,67,48,29.96,29.89,29.82,10,9,3,10,2,14,0.00,5,Rain,91
2012-12-13,56,54,52,52,49,41,100,92,83,29.82,29.77,29.70,10,8,2,9,2,12,0.49,7,Rain,74
2012-12-14,56,49,41,43,40,35,96,72,47,30.01,29.87,29.74,10,10,8,17,2,22,0.00,5,Rain,258
2012-12-15,58,51,43,45,41,34,92,68,43,30.07,30.00,29.96,10,10,5,8,2,10,0.04,6,Rain,212
2012-12-16,55,53,50,50,46,41,80,72,63,30.17,30.13,30.07,10,9,4,9,3,13,T,8,Rain,110
2012-12-17,62,56,50,51,49,47,96,76,56,30.17,30.08,29.99,10,8,4,6,0,8,0.00,8,,263
2012-12-18,59,56,52,54,46,20,93,78,62,30.00,29.88,29.77,10,7,1,21,3,25,0.05,6,Rain,226
2012-12-19,59,47,35,25,14,6,59,36,12,30.27,30.16,29.99,10,10,10,17,7,32,0.00,0,,48
2012-12-20,65,54,42,23,16,13,29,22,14,30.23,30.14,30.06,10,10,10,13,7,20,0.00,0,,76
2012-12-21,64,50,36,32,25,20,51,35,19,30.11,30.06,30.01,10,10,9,7,3,8,0.00,2,,54
2012-12-22,62,49,36,46,35,28,75,56,36,30.17,30.11,30.04,10,10,9,9,3,94,0.00,3,,328
2012-12-23,61,56,50,49,47,44,93,74,55,30.20,30.14,30.09,10,8,2,10,2,13,T,7,Rain,250
2012-12-24,62,56,50,52,50,46,96,82,67,30.11,30.06,29.96,10,7,2,9,3,12,0.22,6,Rain,51
2012-12-25,61,52,43,45,38,26,100,64,27,30.11,30.05,29.97,10,7,2,9,2,12,0.00,2,,85
2012-12-26,59,51,42,48,42,34,100,77,53,29.97,29.93,29.88,10,8,2,17,6,23,0.10,5,Rain,247
2012-12-27,59,48,37,43,36,30,93,66,39,30.09,29.98,29.93,10,10,7,8,2,12,0.00,1,,357
2012-12-28,63,50,36,35,29,22,85,54,22,30.16,30.09,30.04,10,10,10,8,3,12,0.00,1,,68
2012-12-29,55,46,37,46,40,27,86,66,45,30.06,30.01,29.96,10,8,2,13,4,16,0.13,7,Rain,55
2012-12-30,55,47,39,43,40,34,100,73,46,30.04,29.97,29.88,10,4,0,12,2,16,0.00,4,Fog,256
2012-12-31,58,46,34,37,31,20,92,58,24,30.23,30.16,30.07,10,10,7,14,6,47,0.00,1,,23